< < Back
Terminal Aerodrome Forecast


Current Version              Previous Versions:   1  2  3  4  5  6  7  8  9  

Terminal Aerodrome Forecast

770
FTUS42 KILM 282300
TAFILM
TAF
KILM 282320Z 2900/2924 22008KT P6SM SKC
     FM290200 VRB03KT P6SM SKC
      TEMPO 2909/2911 5SM BR FEW060
     FM291700 14008KT P6SM FEW060=



Latest METAR

117
SAUS70 KWBC 291800 RRE
MTRILM
METAR KILM 291753Z AUTO 00000KT 10SM CLR 32/19 A3010 RMK AO2 SLP192
T03170189 10322 20239 55004


USA.gov is the U.S. government's official web portal to all federal, state and local government web resources and services.